Time;durP1;ratioP1;P1;durP2;ratioP2;P2;SDS_P1;SDS_P2;PMS_P1;PMS_P2;Temp;Humidity;BMP_temperature;BMP_pressure;BME280_temperature;BME280_humidity;BME280_pressure;Samples;Min_cycle;Max_cycle;Signal;HPM_P1;HPM_P2
2022/09/06 00:00:32;;;;;;;12.77;7.28;;;;;;;21.94;66.75;101613.66;5049935;28;20059;-75
2022/09/06 00:02:57;;;;;;;18.70;11.45;;;;;;;21.94;72.08;101616.50;5058257;28;20396;-75
2022/09/06 00:05:23;;;;;;;14.73;7.97;;;;;;;21.97;68.44;101607.09;5060751;28;20036;-76
2022/09/06 00:07:48;;;;;;;20.23;8.60;;;;;;;21.99;66.51;101600.94;5043457;28;20033;-77
2022/09/06 00:10:14;;;;;;;14.45;8.05;;;;;;;21.91;68.29;101597.44;5041691;28;20508;-76
2022/09/06 00:12:40;;;;;;;14.15;8.80;;;;;;;21.95;68.44;101595.31;5063031;28;20024;-75
2022/09/06 00:15:06;;;;;;;14.32;7.82;;;;;;;21.97;67.40;101590.00;5063093;28;20090;-77
2022/09/06 00:17:32;;;;;;;15.30;8.57;;;;;;;21.99;67.07;101593.22;5055363;28;20427;-75
2022/09/06 00:19:57;;;;;;;12.20;7.32;;;;;;;21.90;67.44;101575.88;5062705;28;20354;-76
2022/09/06 00:22:23;;;;;;;13.40;7.50;;;;;;;21.87;67.83;101573.91;5061315;28;20046;-76
2022/09/06 00:24:48;;;;;;;14.90;8.45;;;;;;;21.89;69.74;101574.28;5062936;28;20121;-77
2022/09/06 00:27:14;;;;;;;13.45;7.10;;;;;;;21.95;67.65;101568.84;5055508;28;20052;-75
2022/09/06 00:29:39;;;;;;;17.58;9.35;;;;;;;21.88;69.44;101558.41;5041282;28;20024;-76
2022/09/06 00:32:05;;;;;;;16.77;9.32;;;;;;;21.94;68.84;101565.19;5055703;28;20141;-76
2022/09/06 00:34:30;;;;;;;12.27;8.10;;;;;;;21.88;68.92;101562.09;5057018;28;20031;-76
2022/09/06 00:36:55;;;;;;;13.57;8.65;;;;;;;21.91;68.94;101563.25;5056715;28;20097;-77
2022/09/06 00:39:21;;;;;;;14.93;7.43;;;;;;;21.91;67.23;101561.19;5056669;28;20044;-76
2022/09/06 00:41:46;;;;;;;16.48;7.88;;;;;;;21.88;67.07;101575.50;5052310;28;20032;-77
2022/09/06 00:44:12;;;;;;;17.95;7.97;;;;;;;21.78;69.53;101577.38;5039964;28;20111;-77
2022/09/06 00:46:40;;;;;;;15.52;8.20;;;;;;;21.78;69.53;101577.38;5054337;28;20033;-76
2022/09/06 00:49:12;;;;;;;15.98;7.80;;;;;;;21.68;68.53;101584.88;5038576;28;20044;-75
2022/09/06 00:51:38;;;;;;;15.35;10.35;;;;;;;21.66;71.01;101575.19;5042923;28;20032;-76
2022/09/06 00:54:05;;;;;;;22.25;10.00;;;;;;;21.67;70.48;101577.59;5061072;28;20035;-76
2022/09/06 00:56:34;;;;;;;14.80;9.43;;;;;;;21.68;69.90;101584.88;5036641;28;20032;-76
2022/09/06 00:59:00;;;;;;;31.65;10.90;;;;;;;21.54;74.19;101590.84;5051798;28;20472;-76
2022/09/06 01:01:26;;;;;;;14.70;8.10;;;;;;;21.65;68.43;101591.47;5059447;28;20029;-76
2022/09/06 01:03:51;;;;;;;19.65;9.88;;;;;;;21.47;71.13;101588.97;5056162;28;20503;-76
2022/09/06 01:06:17;;;;;;;20.63;8.63;;;;;;;21.57;69.74;101590.00;5062279;28;20029;-76
2022/09/06 01:09:14;;;;;;;22.33;9.38;;;;;;;21.57;72.34;101590.00;5046219;28;20048;-76
2022/09/06 01:11:45;;;;;;;14.70;9.45;;;;;;;21.53;74.76;101589.28;5054456;28;20031;-76
2022/09/06 01:14:30;;;;;;;24.42;11.68;;;;;;;21.46;73.61;101589.38;5058106;28;20622;-76
2022/09/06 01:17:23;;;;;;;14.27;8.18;;;;;;;21.57;71.32;101590.00;5030992;28;20068;-76
2022/09/06 01:20:08;;;;;;;14.82;8.15;;;;;;;21.55;72.16;101592.47;5053869;28;20157;-75
2022/09/06 01:22:42;;;;;;;19.65;8.07;;;;;;;21.52;75.56;101587.66;5056323;28;20029;-75
2022/09/06 01:25:38;;;;;;;15.65;8.65;;;;;;;21.57;69.89;101587.16;5040214;28;20040;-76
2022/09/06 01:28:23;;;;;;;16.30;8.45;;;;;;;21.48;72.50;101582.03;5036355;28;20049;-76
2022/09/06 01:31:04;;;;;;;15.88;8.52;;;;;;;21.52;69.92;101570.56;5031026;28;20032;-76
2022/09/06 01:34:06;;;;;;;13.50;7.18;;;;;;;21.62;69.89;101569.53;5053655;28;20082;-76
2022/09/06 01:36:47;;;;;;;17.70;9.10;;;;;;;21.57;69.90;101564.38;5050797;28;20226;-76
2022/09/06 01:39:31;;;;;;;21.75;9.25;;;;;;;21.33;74.78;101563.56;5033715;28;20049;-76
2022/09/06 01:42:03;;;;;;;22.90;9.60;;;;;;;21.27;72.28;101566.16;5049258;28;20036;-76
2022/09/06 01:44:29;;;;;;;17.25;8.73;;;;;;;21.43;72.58;101565.44;5050507;28;20330;-76
2022/09/06 01:47:13;;;;;;;18.13;8.50;;;;;;;21.45;72.23;101565.00;5055170;28;20029;-76
2022/09/06 01:50:07;;;;;;;15.65;8.63;;;;;;;21.39;73.53;101558.97;5051560;28;20112;-76
2022/09/06 01:52:40;;;;;;;15.77;9.43;;;;;;;21.50;74.14;101550.25;5014033;28;20471;-76
2022/09/06 01:55:06;;;;;;;;;;;;;;;21.48;74.09;101544.19;5058711;28;20040;-76
2022/09/06 01:57:47;;;;;;;21.05;7.95;;;;;;;21.42;72.44;101534.53;5055073;28;20331;-75
2022/09/06 02:00:19;;;;;;;25.77;11.73;;;;;;;21.39;75.88;101532.56;5034785;28;20033;-77
2022/09/06 02:03:06;;;;;;;21.08;9.65;;;;;;;21.25;74.12;101543.00;5057765;28;20109;-75
2022/09/06 02:05:50;;;;;;;24.30;10.07;;;;;;;21.40;73.52;101534.97;5035447;28;20054;-76
2022/09/06 02:08:38;;;;;;;17.33;9.65;;;;;;;21.32;74.64;101545.69;5055367;28;20075;-76
2022/09/06 02:11:06;;;;;;;18.38;9.57;;;;;;;21.35;73.91;101526.91;5050631;28;20032;-76
2022/09/06 02:13:39;;;;;;;18.23;8.73;;;;;;;21.28;73.46;101532.78;5037381;28;20031;-76
2022/09/06 02:16:07;;;;;;;18.25;9.88;;;;;;;21.24;75.56;101532.84;5057169;28;20500;-76
2022/09/06 02:18:41;;;;;;;19.15;10.10;;;;;;;21.26;76.05;101535.25;5053995;28;20056;-76
2022/09/06 02:21:11;;;;;;;21.70;10.93;;;;;;;21.20;77.18;101537.78;5054999;28;20500;-76
2022/09/06 02:23:39;;;;;;;20.58;9.80;;;;;;;21.26;74.24;101536.03;5063142;28;20047;-76
2022/09/06 02:26:20;;;;;;;14.65;9.40;;;;;;;21.18;76.30;101528.88;5044021;28;20067;-76
2022/09/06 02:28:45;;;;;;;23.13;9.88;;;;;;;21.16;76.94;101537.06;5060331;28;20037;-76
2022/09/06 02:31:19;;;;;;;21.55;9.93;;;;;;;21.19;77.17;101544.75;5065307;28;20090;-77
2022/09/06 02:33:46;;;;;;;19.00;9.75;;;;;;;21.25;73.35;101543.00;5042919;28;20021;-77
2022/09/06 02:36:14;;;;;;;18.67;8.95;;;;;;;21.24;74.65;101554.81;5058131;28;20086;-77
2022/09/06 02:38:40;;;;;;;22.77;11.05;;;;;;;21.18;76.66;101540.28;5059619;28;20040;-76
2022/09/06 02:41:07;;;;;;;12.20;8.07;;;;;;;21.26;75.96;101530.34;5060591;28;20044;-76
2022/09/06 02:43:32;;;;;;;16.70;9.75;;;;;;;21.26;74.12;101530.34;5068358;28;20116;-76
2022/09/06 02:45:58;;;;;;;20.50;10.70;;;;;;;21.20;78.07;101526.41;5058971;28;21242;-76
2022/09/06 02:48:23;;;;;;;20.92;9.73;;;;;;;21.26;74.53;101513.28;5058457;28;20047;-77
2022/09/06 02:50:49;;;;;;;18.52;9.85;;;;;;;21.25;78.08;101514.53;5063022;28;20033;-76
2022/09/06 02:53:14;;;;;;;22.13;9.70;;;;;;;21.19;75.20;101516.28;5062906;28;20028;-76
2022/09/06 02:55:40;;;;;;;18.85;8.63;;;;;;;21.21;76.24;101510.94;5067188;28;20562;-76
2022/09/06 02:58:08;;;;;;;17.13;8.80;;;;;;;21.22;74.66;101506.84;5045529;28;20748;-76
2022/09/06 03:00:34;;;;;;;18.73;8.40;;;;;;;21.29;74.37;101514.44;5062963;28;20029;-76
2022/09/06 03:02:59;;;;;;;17.33;9.07;;;;;;;21.26;75.78;101501.88;5058779;28;20039;-76
2022/09/06 03:05:26;;;;;;;24.05;10.25;;;;;;;21.14;76.29;101511.06;5048101;28;20047;-76
2022/09/06 03:07:53;;;;;;;18.27;9.52;;;;;;;21.09;76.46;101489.59;5059571;28;20028;-76
2022/09/06 03:10:19;;;;;;;15.52;9.50;;;;;;;21.19;76.31;101495.50;5062052;28;20024;-76
2022/09/06 03:12:45;;;;;;;15.73;8.68;;;;;;;21.21;74.28;101482.47;5061598;28;20051;-76
2022/09/06 03:15:12;;;;;;;21.35;11.07;;;;;;;21.11;77.94;101483.47;5040422;28;20028;-76
2022/09/06 03:17:39;;;;;;;18.55;9.20;;;;;;;21.12;76.66;101476.53;5058715;28;20402;-76
2022/09/06 03:20:05;;;;;;;17.92;9.63;;;;;;;21.10;76.25;101479.03;5065643;28;20385;-76
2022/09/06 03:22:30;;;;;;;17.83;9.77;;;;;;;21.09;77.66;101481.06;5061214;28;20035;-76
2022/09/06 03:24:58;;;;;;;17.23;8.77;;;;;;;20.99;78.87;101465.00;5061487;28;20368;-76
2022/09/06 03:27:24;;;;;;;18.30;9.05;;;;;;;21.05;77.08;101463.25;5052139;28;20047;-76
2022/09/06 03:29:49;;;;;;;18.80;9.35;;;;;;;20.94;77.19;101461.88;5046076;28;20033;-76
2022/09/06 03:32:14;;;;;;;18.67;9.38;;;;;;;21.02;78.15;101469.00;5051762;28;20123;-76
2022/09/06 03:34:40;;;;;;;17.33;9.63;;;;;;;21.02;76.30;101469.84;5045530;28;20166;-77
2022/09/06 03:37:05;;;;;;;17.23;9.32;;;;;;;21.06;75.71;101464.06;5059297;28;20079;-75
2022/09/06 03:39:31;;;;;;;16.60;9.68;;;;;;;21.04;77.84;101464.50;5042725;28;20415;-76
2022/09/06 03:41:56;;;;;;;20.02;10.90;;;;;;;20.80;82.12;101475.13;5061946;28;20052;-75
2022/09/06 03:44:22;;;;;;;24.88;9.75;;;;;;;20.84;76.67;101473.00;5064507;28;20029;-76
2022/09/06 03:46:47;;;;;;;23.38;13.32;;;;;;;20.81;79.48;101470.25;5057663;28;20036;-76
2022/09/06 03:49:12;;;;;;;18.77;9.95;;;;;;;20.91;79.01;101478.59;5060650;28;20040;-76
2022/09/06 03:51:38;;;;;;;19.27;10.63;;;;;;;20.84;78.38;101477.91;5042355;28;20033;-76
2022/09/06 03:54:03;;;;;;;21.42;11.15;;;;;;;20.78;83.16;101477.59;5064184;28;20028;-76
2022/09/06 03:56:29;;;;;;;16.73;11.48;;;;;;;20.79;78.00;101472.72;5065211;28;20036;-76
2022/09/06 03:58:54;;;;;;;19.95;11.05;;;;;;;20.92;79.57;101488.72;5058820;28;20041;-76
2022/09/06 04:01:19;;;;;;;23.48;11.65;;;;;;;20.89;80.71;101475.38;5047696;28;20032;-75
2022/09/06 04:03:45;;;;;;;21.65;12.32;;;;;;;20.80;80.78;101480.00;5046077;28;20021;-76
2022/09/06 04:06:11;;;;;;;20.00;11.48;;;;;;;20.79;79.55;101479.22;5042526;28;20517;-76
2022/09/06 04:08:37;;;;;;;25.73;13.60;;;;;;;20.80;78.99;101475.13;5063133;28;20075;-76
2022/09/06 04:11:04;;;;;;;19.60;12.95;;;;;;;20.71;80.19;101478.53;5060416;28;20036;-76
2022/09/06 04:13:30;;;;;;;16.38;11.63;;;;;;;20.77;80.48;101476.00;5060622;28;20020;-76
2022/09/06 04:15:56;;;;;;;27.15;14.32;;;;;;;20.61;82.50;101479.53;5043669;28;20419;-76
2022/09/06 04:18:22;;;;;;;21.10;12.68;;;;;;;20.70;79.92;101481.81;5058917;28;20040;-77
2022/09/06 04:20:48;;;;;;;36.08;18.00;;;;;;;20.42;85.21;101492.41;5058999;28;20742;-75
2022/09/06 04:23:14;;;;;;;20.42;12.02;;;;;;;20.74;80.22;101493.13;5047507;28;20025;-76
2022/09/06 04:25:39;;;;;;;25.20;13.93;;;;;;;20.58;81.69;101479.59;5069781;28;20476;-76
2022/09/06 04:28:05;;;;;;;19.50;11.98;;;;;;;20.68;81.09;101484.28;5069592;28;20033;-75
2022/09/06 04:30:30;;;;;;;23.70;11.90;;;;;;;20.64;84.17;101490.03;5041171;28;20032;-75
2022/09/06 04:32:56;;;;;;;14.43;10.75;;;;;;;20.67;78.95;101477.00;5048941;28;20032;-77
2022/09/06 04:35:21;;;;;;;23.10;11.88;;;;;;;20.63;80.70;101479.09;5038921;28;20488;-75
2022/09/06 04:37:47;;;;;;;23.25;12.85;;;;;;;20.74;79.76;101470.38;5054782;28;20496;-76
2022/09/06 04:40:12;;;;;;;25.40;13.68;;;;;;;20.63;84.51;101477.03;5040219;28;20048;-75
2022/09/06 04:42:37;;;;;;;25.58;16.17;;;;;;;20.62;83.40;101480.34;5052894;28;20043;-77
2022/09/06 04:45:04;;;;;;;22.73;13.85;;;;;;;20.67;80.24;101482.69;5055951;28;20722;-76
2022/09/06 04:47:30;;;;;;;19.10;10.82;;;;;;;20.66;80.49;101478.22;5054459;28;20066;-76
2022/09/06 04:49:55;;;;;;;23.15;12.75;;;;;;;20.61;81.95;101484.41;5057543;28;20084;-76
2022/09/06 04:52:20;;;;;;;19.17;10.82;;;;;;;20.68;80.75;101485.09;5054854;28;20169;-76
2022/09/06 04:54:46;;;;;;;25.10;14.35;;;;;;;20.57;81.13;101489.31;5055460;28;20484;-77
2022/09/06 04:57:11;;;;;;;21.08;12.68;;;;;;;20.63;79.34;101488.44;5056530;28;20364;-76
2022/09/06 04:59:36;;;;;;;24.63;13.18;;;;;;;20.42;81.14;101491.59;5054046;28;20024;-76
2022/09/06 05:02:02;;;;;;;22.95;14.48;;;;;;;20.52;80.18;101487.78;5056143;28;20025;-76
2022/09/06 05:04:28;;;;;;;19.88;15.07;;;;;;;20.36;82.46;101485.59;5055322;28;20036;-75
2022/09/06 05:07:04;;;;;;;19.30;12.55;;;;;;;20.41;81.63;101487.19;5030848;28;20664;-76
2022/09/06 05:09:31;;;;;;;24.90;17.35;;;;;;;20.10;84.24;101502.25;5053818;28;20052;-76
2022/09/06 05:11:56;;;;;;;22.83;16.45;;;;;;;20.30;82.30;101495.84;5051647;28;20638;-76
2022/09/06 05:14:22;;;;;;;20.83;15.65;;;;;;;20.40;83.63;101492.03;5037780;28;20086;-77
2022/09/06 05:16:51;;;;;;;24.05;13.32;;;;;;;20.29;81.56;101491.41;5032751;28;20510;-76
2022/09/06 05:19:16;;;;;;;15.73;12.88;;;;;;;20.51;78.60;101506.06;5034892;28;20028;-75
2022/09/06 05:21:42;;;;;;;16.10;12.57;;;;;;;20.52;79.72;101505.66;5032309;28;20106;-76
2022/09/06 05:24:07;;;;;;;16.63;12.52;;;;;;;20.52;78.46;101511.34;5031075;28;20029;-76
2022/09/06 05:26:33;;;;;;;17.25;12.07;;;;;;;20.50;77.73;101525.19;5053419;28;20499;-76
2022/09/06 05:28:58;;;;;;;15.82;12.82;;;;;;;20.41;79.39;101538.34;5036298;28;20361;-75
2022/09/06 05:31:29;;;;;;;18.17;12.90;;;;;;;20.30;79.85;101544.19;5053991;28;20041;-75
2022/09/06 05:33:56;;;;;;;19.55;13.50;;;;;;;20.41;80.26;101541.19;5051466;28;20273;-76
2022/09/06 05:36:23;;;;;;;22.27;17.42;;;;;;;20.27;80.83;101540.16;5055007;28;20484;-75
2022/09/06 05:38:53;;;;;;;17.55;12.65;;;;;;;20.34;79.00;101549.81;5034856;28;20066;-75
2022/09/06 05:41:19;;;;;;;21.92;14.05;;;;;;;20.38;78.95;101564.78;5048269;28;20032;-76
2022/09/06 05:43:46;;;;;;;21.35;13.75;;;;;;;20.33;79.48;101563.25;5048424;28;20128;-76
2022/09/06 05:46:11;;;;;;;20.10;13.32;;;;;;;20.44;81.57;101566.72;5037529;28;20395;-76
2022/09/06 05:48:37;;;;;;;17.85;13.25;;;;;;;20.43;78.90;101565.13;5053685;28;20032;-76
2022/09/06 05:51:05;;;;;;;18.48;12.90;;;;;;;20.35;77.85;101563.63;5056283;28;20540;-76
2022/09/06 05:53:38;;;;;;;15.48;13.48;;;;;;;20.35;79.12;101563.63;5058468;28;20044;-75
2022/09/06 05:56:05;;;;;;;28.23;18.17;;;;;;;20.18;83.27;101567.53;5035043;28;20082;-75
2022/09/06 05:58:30;;;;;;;21.98;15.40;;;;;;;20.14;83.94;101569.63;5049319;28;20041;-76
2022/09/06 06:01:17;;;;;;;18.95;13.40;;;;;;;20.35;78.64;101572.13;5034954;28;20060;-76
2022/09/06 06:03:59;;;;;;;17.67;13.23;;;;;;;20.36;79.87;101564.41;5050953;28;20032;-76
2022/09/06 06:06:27;;;;;;;24.00;17.10;;;;;;;20.19;83.06;101572.75;5054534;28;20120;-76
2022/09/06 06:08:52;;;;;;;23.88;14.05;;;;;;;20.26;82.18;101571.84;5051104;28;20043;-76
2022/09/06 06:11:18;;;;;;;19.60;12.75;;;;;;;20.33;79.47;101571.75;5052565;28;20033;-76
2022/09/06 06:13:44;;;;;;;20.67;14.82;;;;;;;20.41;79.98;101570.44;5061199;28;20380;-83
2022/09/06 06:16:12;;;;;;;18.85;14.73;;;;;;;20.50;80.54;101573.53;5060834;28;20074;-82
2022/09/06 06:18:37;;;;;;;23.17;14.88;;;;;;;20.54;81.66;101559.25;5061711;28;20037;-82
2022/09/06 06:21:26;;;;;;;20.48;16.58;;;;;;;20.54;81.44;101547.09;5059207;28;20783;-82
2022/09/06 06:23:55;;;;;;;22.95;14.73;;;;;;;20.50;81.96;101542.25;5048714;28;20038;-79
2022/09/06 06:26:21;;;;;;;18.73;14.35;;;;;;;20.39;83.38;101540.81;5041735;28;20124;-80
2022/09/06 06:28:47;;;;;;;19.48;14.77;;;;;;;20.45;81.79;101539.91;5044185;28;20062;-80
2022/09/06 06:31:14;;;;;;;21.42;15.50;;;;;;;20.49;81.26;101545.50;5053652;28;20078;-79
2022/09/06 06:33:40;;;;;;;27.40;14.25;;;;;;;20.44;81.44;101543.97;5063760;28;20575;-79
2022/09/06 06:36:11;;;;;;;20.00;14.75;;;;;;;20.44;81.68;101549.66;5053461;28;20040;-80
2022/09/06 06:38:38;;;;;;;17.52;13.63;;;;;;;20.37;82.58;101534.75;5061056;28;20125;-79
2022/09/06 06:41:06;;;;;;;22.15;14.18;;;;;;;20.39;82.47;101535.13;5061505;28;20051;-79
2022/09/06 06:43:35;;;;;;;16.17;11.27;;;;;;;20.47;80.75;101531.75;5060417;28;20028;-81
2022/09/06 06:46:15;;;;;;;15.30;13.52;;;;;;;20.56;81.11;101527.56;5044288;28;20036;-78
2022/09/06 06:48:42;;;;;;;19.58;13.77;;;;;;;20.56;81.48;101528.34;5063098;28;20032;-81
2022/09/06 06:51:09;;;;;;;18.98;11.80;;;;;;;20.49;81.63;101523.59;5046183;28;20117;-78
2022/09/06 06:53:34;;;;;;;18.20;13.38;;;;;;;20.36;84.27;101519.72;5060162;28;20504;-78
2022/09/06 06:56:00;;;;;;;23.10;15.90;;;;;;;20.08;85.68;101526.66;5050808;28;20119;-78
2022/09/06 06:58:26;;;;;;;23.92;17.92;;;;;;;20.02;86.29;101523.47;5065045;28;20031;-78
2022/09/06 07:00:52;;;;;;;15.63;11.85;;;;;;;20.31;81.30;101528.75;5064649;28;20044;-81
2022/09/06 07:03:17;;;;;;;16.10;12.80;;;;;;;20.45;81.35;101531.38;5063088;28;20534;-80
2022/09/06 07:05:44;;;;;;;25.25;18.00;;;;;;;20.18;87.79;101530.59;5044111;28;20476;-81
2022/09/06 07:08:10;;;;;;;28.17;19.73;;;;;;;20.34;86.91;101533.56;5065336;28;20020;-78
2022/09/06 07:10:35;;;;;;;23.42;15.98;;;;;;;20.31;82.42;101520.22;5058571;28;20033;-78
2022/09/06 07:13:01;;;;;;;20.40;14.52;;;;;;;20.28;86.20;101521.06;5042141;28;20033;-81
2022/09/06 07:15:26;;;;;;;30.00;19.77;;;;;;;20.24;88.00;101523.19;5037630;28;20032;-80
2022/09/06 07:17:54;;;;;;;26.90;17.95;;;;;;;20.31;85.94;101523.06;5049649;28;20036;-81
2022/09/06 07:20:19;;;;;;;19.45;14.55;;;;;;;20.36;83.54;101518.91;5042220;28;20044;-81
2022/09/06 07:22:45;;;;;;;18.92;13.88;;;;;;;20.38;84.88;101519.28;5042231;28;20039;-81
2022/09/06 07:25:12;;;;;;;24.45;17.38;;;;;;;20.38;86.30;101514.41;5041980;28;20039;-78
2022/09/06 07:27:38;;;;;;;23.30;18.23;;;;;;;20.44;83.20;101518.38;5044174;28;20032;-81
2022/09/06 07:30:03;;;;;;;23.20;18.15;;;;;;;20.46;84.77;101515.09;5038246;28;20465;-81
2022/09/06 07:32:30;;;;;;;26.80;17.83;;;;;;;20.45;84.73;101514.31;5051772;28;20435;-78
2022/09/06 07:34:55;;;;;;;29.05;18.20;;;;;;;20.47;84.84;101514.69;5062619;28;20063;-81
2022/09/06 07:37:21;;;;;;;26.05;18.67;;;;;;;20.49;85.09;101515.06;5062017;28;20048;-79
2022/09/06 07:39:46;;;;;;;23.55;16.58;;;;;;;20.64;84.05;101520.50;5056978;28;20052;-80
2022/09/06 07:42:11;;;;;;;24.02;17.63;;;;;;;20.63;84.63;101510.38;5060356;28;20052;-81
2022/09/06 07:44:37;;;;;;;22.02;17.63;;;;;;;20.70;84.32;101515.94;5056854;28;20044;-80
2022/09/06 07:47:05;;;;;;;22.85;16.48;;;;;;;20.87;84.05;101514.00;5044340;28;20033;-80
2022/09/06 07:49:33;;;;;;;22.30;17.10;;;;;;;20.96;83.56;101522.00;5059887;28;20373;-78
2022/09/06 07:51:59;;;;;;;21.33;14.38;;;;;;;20.97;82.00;101509.38;5057493;28;20745;-81
2022/09/06 07:54:24;;;;;;;16.65;14.80;;;;;;;21.06;81.42;101518.13;5047872;28;20024;-79
2022/09/06 07:56:50;;;;;;;22.27;14.98;;;;;;;21.20;82.65;101509.31;5038987;28;20036;-81
2022/09/06 07:59:15;;;;;;;19.00;16.20;;;;;;;21.18;82.63;101506.09;5062598;28;20506;-79
2022/09/06 08:01:41;;;;;;;22.40;16.42;;;;;;;21.31;81.20;101509.94;5064430;28;20404;-78
2022/09/06 08:04:09;;;;;;;23.92;15.38;;;;;;;21.39;80.36;101507.72;5044730;28;20016;-81
2022/09/06 08:06:37;;;;;;;18.50;13.82;;;;;;;21.43;79.48;101514.19;5040147;28;20590;-79
2022/09/06 08:09:05;;;;;;;18.45;14.15;;;;;;;21.53;78.90;101503.81;5058153;28;20023;-81
2022/09/06 08:11:32;;;;;;;19.52;14.63;;;;;;;21.55;78.58;101512.72;5062597;28;20188;-81
2022/09/06 08:13:59;;;;;;;30.40;15.13;;;;;;;21.71;77.71;101509.13;5055691;28;20081;-79
2022/09/06 08:16:27;;;;;;;17.38;13.60;;;;;;;21.73;77.87;101512.31;5043685;28;20397;-81
2022/09/06 08:18:55;;;;;;;22.92;15.30;;;;;;;21.74;78.39;101513.16;5048311;28;20044;-80
2022/09/06 08:21:31;;;;;;;16.27;12.73;;;;;;;21.83;77.01;101505.59;5057561;28;20577;-79
2022/09/06 08:24:04;;;;;;;23.33;14.63;;;;;;;22.04;76.83;101512.06;5059913;28;20488;-79
2022/09/06 08:26:31;;;;;;;20.13;13.73;;;;;;;22.17;76.48;101517.88;5062888;28;20029;-79
2022/09/06 08:29:02;;;;;;;19.77;13.18;;;;;;;22.13;74.55;101523.66;5053942;28;20036;-81
2022/09/06 08:31:29;;;;;;;21.48;13.45;;;;;;;22.26;76.75;101520.94;5058492;28;20115;-79
2022/09/06 08:33:56;;;;;;;24.48;16.90;;;;;;;22.45;75.16;101528.63;5042691;28;20029;-79
2022/09/06 08:36:21;;;;;;;21.42;15.13;;;;;;;22.39;75.63;101524.69;5062254;28;20040;-79
2022/09/06 08:38:47;;;;;;;21.02;13.57;;;;;;;22.33;72.25;101509.38;5063688;28;20040;-79
2022/09/06 08:41:15;;;;;;;19.73;14.88;;;;;;;22.46;74.10;101521.66;5043833;28;20441;-81
2022/09/06 08:44:13;;;;;;;25.23;15.52;;;;;;;22.51;73.76;101518.25;5046386;28;20187;-79
2022/09/06 08:46:47;;;;;;;23.13;15.45;;;;;;;22.50;73.61;101513.03;5039912;28;20040;-78
2022/09/06 08:49:13;;;;;;;22.70;16.15;;;;;;;22.63;73.10;101510.25;5042255;28;20491;-81
2022/09/06 08:51:47;;;;;;;22.35;14.95;;;;;;;22.75;72.79;101503.81;5062753;28;20422;-79
2022/09/06 08:54:39;;;;;;;20.17;14.20;;;;;;;22.87;70.81;101503.06;5041097;28;20033;-81
2022/09/06 08:57:14;;;;;;;20.58;13.30;;;;;;;22.91;70.01;101503.78;5055532;28;20070;-79
2022/09/06 08:59:41;;;;;;;18.63;12.68;;;;;;;23.00;69.82;101506.00;5058752;28;20515;-79
2022/09/06 09:02:13;;;;;;;25.05;15.02;;;;;;;22.99;69.92;101512.16;5057394;28;20467;-79
2022/09/06 09:04:43;;;;;;;23.20;15.27;;;;;;;23.08;70.55;101509.47;5053450;28;20028;-82
2022/09/06 09:07:23;;;;;;;15.18;12.77;;;;;;;23.21;70.71;101510.34;5045065;28;20531;-79
2022/09/06 09:09:50;;;;;;;22.25;12.82;;;;;;;23.39;68.66;101503.31;5061613;28;20036;-82
2022/09/06 09:12:22;;;;;;;20.15;12.55;;;;;;;23.34;68.15;101501.84;5058664;28;20607;-82
2022/09/06 09:14:52;;;;;;;21.70;14.68;;;;;;;23.50;67.46;101515.22;5055032;28;20540;-79
2022/09/06 09:17:24;;;;;;;18.77;12.77;;;;;;;23.49;68.17;101511.59;5042742;28;20438;-79
2022/09/06 09:19:49;;;;;;;23.05;12.43;;;;;;;23.55;68.10;101517.56;5058849;28;20507;-81
2022/09/06 09:22:18;;;;;;;19.10;10.68;;;;;;;23.51;66.56;101514.00;5044660;28;20036;-81
2022/09/06 09:24:46;;;;;;;17.65;10.32;;;;;;;23.46;65.67;101497.41;5039977;28;20672;-81
2022/09/06 09:27:18;;;;;;;13.30;9.27;;;;;;;23.44;63.91;101505.63;5064010;28;20119;-81
2022/09/06 09:29:52;;;;;;;;;;;;;;;23.17;64.49;101497.41;5061326;28;20063;-79
2022/09/06 09:32:38;;;;;;;12.18;8.43;;;;;;;23.57;63.96;101495.03;5047945;28;20404;-81
2022/09/06 09:35:36;;;;;;;14.75;8.70;;;;;;;23.84;62.61;101496.69;5045390;28;20130;-78
2022/09/06 09:38:11;;;;;;;12.18;8.05;;;;;;;23.65;62.34;101493.53;5058988;28;20116;-78
2022/09/06 09:40:58;;;;;;;14.32;7.55;;;;;;;24.09;59.60;101490.19;5045200;28;20409;-81
2022/09/06 09:43:39;;;;;;;10.25;5.78;;;;;;;24.07;60.45;101490.63;5050256;28;20073;-78
2022/09/06 09:46:22;;;;;;;10.80;7.63;;;;;;;24.03;59.86;101489.94;5040576;28;20036;-78
2022/09/06 09:49:11;;;;;;;9.15;5.68;;;;;;;24.34;58.24;101486.50;5067536;28;20109;-81
2022/09/06 09:51:42;;;;;;;8.50;5.47;;;;;;;24.41;58.00;101474.81;5064488;28;20285;-78
2022/09/06 09:54:14;;;;;;;5.50;4.53;;;;;;;24.23;58.71;101483.22;5062773;28;20044;-78
2022/09/06 09:56:48;;;;;;;7.15;5.07;;;;;;;24.71;57.85;101475.50;5045380;28;20290;-78
2022/09/06 09:59:48;;;;;;;6.45;4.65;;;;;;;24.75;57.95;101464.69;5063915;28;20040;-81
2022/09/06 10:02:35;;;;;;;8.75;4.50;;;;;;;24.93;56.31;101470.56;5043774;28;20044;-78
2022/09/06 10:05:00;;;;;;;5.28;4.38;;;;;;;24.68;56.43;101473.53;5061692;28;20488;-81
2022/09/06 10:07:26;;;;;;;5.22;3.80;;;;;;;25.00;55.52;101474.44;5058913;28;20029;-81
2022/09/06 10:10:03;;;;;;;6.32;4.18;;;;;;;24.91;56.38;101473.09;5048555;28;20036;-78
2022/09/06 10:12:40;;;;;;;7.90;4.25;;;;;;;25.13;56.06;101463.72;5051718;28;20445;-78
2022/09/06 10:15:08;;;;;;;8.25;4.70;;;;;;;25.26;55.20;101464.50;5059044;28;20482;-78
2022/09/06 10:17:50;;;;;;;5.75;4.38;;;;;;;25.20;55.92;101463.50;5059765;28;20481;-81
2022/09/06 10:20:16;;;;;;;;;;;;;;;25.45;54.65;101474.03;5043396;28;20033;-78
2022/09/06 10:22:50;;;;;;;4.45;2.95;;;;;;;25.51;55.33;101459.88;5059891;28;19919;-78
2022/09/06 10:25:38;;;;;;;6.68;3.25;;;;;;;25.77;52.87;101457.63;5058528;28;20099;-81
2022/09/06 10:28:26;;;;;;;5.00;3.03;;;;;;;25.33;52.13;101452.75;5048353;28;20114;-81
2022/09/06 10:31:35;;;;;;;4.75;3.20;;;;;;;25.45;52.85;101458.91;5057684;28;20098;-78
2022/09/06 10:34:25;;;;;;;7.13;4.03;;;;;;;25.76;52.10;101451.13;5061398;28;20078;-78
2022/09/06 10:37:35;;;;;;;6.60;3.47;;;;;;;25.72;52.77;101455.38;5046611;28;20040;-79
2022/09/06 10:40:14;;;;;;;9.23;3.67;;;;;;;26.34;51.81;101460.25;5059674;28;20051;-78
2022/09/06 10:42:53;;;;;;;7.75;3.50;;;;;;;26.19;51.04;101465.81;5048670;28;20507;-78
2022/09/06 10:45:43;;;;;;;5.55;3.42;;;;;;;26.08;50.99;101463.38;5062061;28;20091;-78
2022/09/06 10:48:17;;;;;;;7.38;4.68;;;;;;;26.10;51.51;101463.72;5061861;28;20097;-78
2022/09/06 10:50:54;;;;;;;6.05;4.85;;;;;;;26.44;50.95;101464.75;5050201;28;20031;-82
2022/09/06 10:53:38;;;;;;;9.43;4.18;;;;;;;26.12;52.37;101458.28;5041289;28;20123;-82
2022/09/06 10:56:09;;;;;;;5.57;3.70;;;;;;;26.44;50.66;101459.00;5061387;28;20037;-82
2022/09/06 10:59:19;;;;;;;5.38;3.63;;;;;;;26.47;50.67;101463.78;5047863;28;20492;-79
2022/09/06 11:02:10;;;;;;;7.68;3.67;;;;;;;26.90;49.92;101443.91;5039588;28;20082;-78
2022/09/06 11:04:40;;;;;;;6.85;3.88;;;;;;;26.82;49.85;101457.81;5027941;28;20044;-82
2022/09/06 11:07:27;;;;;;;6.75;4.57;;;;;;;27.05;48.25;101449.81;5064636;28;20033;-79
2022/09/06 11:10:00;;;;;;;7.53;3.95;;;;;;;26.60;49.17;101451.41;5060041;28;20047;-79
2022/09/06 11:12:47;;;;;;;7.10;3.63;;;;;;;26.60;50.15;101439.91;5044656;28;20029;-82
2022/09/06 11:15:14;;;;;;;7.15;3.85;;;;;;;27.27;47.46;101449.66;5060299;28;20033;-79
2022/09/06 11:17:46;;;;;;;5.60;3.50;;;;;;;27.48;47.83;101450.75;5040521;28;20036;-78
2022/09/06 11:20:17;;;;;;;6.25;4.63;;;;;;;27.02;48.12;101445.03;5056509;28;20045;-81
2022/09/06 11:22:52;;;;;;;7.15;3.33;;;;;;;27.35;47.39;101439.44;5059894;28;20524;-78
2022/09/06 11:25:33;;;;;;;5.85;4.05;;;;;;;27.49;47.30;101449.44;5061518;28;20414;-78
2022/09/06 11:28:00;;;;;;;4.78;3.60;;;;;;;27.44;47.85;101452.97;5043103;28;20057;-81
2022/09/06 11:30:28;;;;;;;5.53;3.20;;;;;;;27.54;47.80;101446.72;5037078;28;20029;-78